John R Operle — WDB8611 — position and weather

sailwx.info

Track history (hours):
 
Tides and Currents Weather Stations Pressure Air Temp Water Temp Dewpoint Dewpoint Depression Visibility Wind Speed Wind Dir Waves Ship Positions

John R Operle

Owner: INGRAM BARGE COMPANY, Nashville, TN. More information available from US FCC via Universal Licensing System and Coast Guard Vessel Documentation Center.

Last reported at 2017-Jun-15 15:56 UTC. Time now 2017-Jun-23 13:45 UTC.
Position N 40°42' W 091°07'.

Length 48 m.

Type: Towing. MMSI: 366961510.

Date/timePositionNaut miles runAvg speedWind from/ knotsBaromVisibWave heightAir tempDewpointWater temp
2017-Jun-15 15:56N 40°42' W 091°07'4 6.3
2017-Jun-15 15:19N 40°46' W 091°06'2 6.7
2017-Jun-15 15:00N 40°48' W 091°06'3 5.3
2017-Jun-15 14:30N 40°50' W 091°04'4 3.6
2017-Jun-15 13:30N 40°53' W 091°01'0 0.2
2017-Jun-15 13:00N 40°53' W 091°01'0 0.2
2017-Jun-15 12:30N 40°53' W 091°01'0 0.5
2017-Jun-15 12:00N 40°53' W 091°01'0 0.1
2017-Jun-15 11:30N 40°53' W 091°01'1 2.3
2017-Jun-15 11:00N 40°54' W 091°00'3 5.1
2017-Jun-15 10:30N 40°56' W 090°58'3 6.7
2017-Jun-15 10:00N 40°59' W 090°57'3 7.0
2017-Jun-15 09:30N 41°03' W 090°57'4 7.4
2017-Jun-15 09:00N 41°06' W 090°57'4 7.9
2017-Jun-15 08:28N 41°10' W 090°60'3 6.0
2017-Jun-15 07:59N 41°11' W 091°03'0 0.8
2017-Jun-15 07:30N 41°12' W 091°03'  
2017-Jun-10 16:19N 41°07' W 090°58'2 5.1
2017-Jun-10 15:59N 41°06' W 090°57'3 5.1
2017-Jun-10 15:28N 41°03' W 090°57'1 2.7
2017-Jun-10 14:59N 41°02' W 090°56'4 3.6
2017-Jun-10 14:00N 40°59' W 090°58'2 4.2
2017-Jun-10 13:30N 40°57' W 090°57'2 4.2
2017-Jun-10 13:00N 40°55' W 090°59'2 4.7
2017-Jun-10 12:30N 40°53' W 091°01'0 0.8
2017-Jun-10 12:00N 40°53' W 091°01'0 0.2
2017-Jun-10 11:30N 40°53' W 091°02'0 0.0
2017-Jun-10 11:00N 40°53' W 091°02'1 2.3
2017-Jun-10 10:30N 40°52' W 091°03'0 0.3
2017-Jun-10 10:00N 40°52' W 091°03'1 2.2
2017-Jun-10 09:30N 40°51' W 091°03'2 4.4
2017-Jun-10 09:00N 40°49' W 091°05'2 4.9
2017-Jun-10 08:30N 40°47' W 091°06'3 5.3
2017-Jun-10 07:55N 40°44' W 091°07'2 4.7
2017-Jun-10 07:30N 40°42' W 091°07'  
Track history (hours):
 
Tides and Currents Weather Stations Pressure Air Temp Water Temp Dewpoint Dewpoint Depression Visibility Wind Speed Wind Dir Waves Ship Positions

John R Operle

Owner: INGRAM BARGE COMPANY, Nashville, TN. More information available from US FCC via Universal Licensing System and Coast Guard Vessel Documentation Center.

Last reported at 2017-Jun-15 15:56 UTC. Time now 2017-Jun-23 13:45 UTC.
Position N 40°42' W 091°07'.

Length 48 m.

Type: Towing. MMSI: 366961510.

Date/timePositionNaut miles runAvg speedWind from/ knotsBaromVisibWave heightAir tempDewpointWater temp
2017-Jun-15 15:56N 40°42' W 091°07'4 6.3
2017-Jun-15 15:19N 40°46' W 091°06'2 6.7
2017-Jun-15 15:00N 40°48' W 091°06'3 5.3
2017-Jun-15 14:30N 40°50' W 091°04'4 3.6
2017-Jun-15 13:30N 40°53' W 091°01'0 0.2
2017-Jun-15 13:00N 40°53' W 091°01'0 0.2
2017-Jun-15 12:30N 40°53' W 091°01'0 0.5
2017-Jun-15 12:00N 40°53' W 091°01'0 0.1
2017-Jun-15 11:30N 40°53' W 091°01'1 2.3
2017-Jun-15 11:00N 40°54' W 091°00'3 5.1
2017-Jun-15 10:30N 40°56' W 090°58'3 6.7
2017-Jun-15 10:00N 40°59' W 090°57'3 7.0
2017-Jun-15 09:30N 41°03' W 090°57'4 7.4
2017-Jun-15 09:00N 41°06' W 090°57'4 7.9
2017-Jun-15 08:28N 41°10' W 090°60'3 6.0
2017-Jun-15 07:59N 41°11' W 091°03'0 0.8
2017-Jun-15 07:30N 41°12' W 091°03'  
2017-Jun-10 16:19N 41°07' W 090°58'2 5.1
2017-Jun-10 15:59N 41°06' W 090°57'3 5.1
2017-Jun-10 15:28N 41°03' W 090°57'1 2.7
2017-Jun-10 14:59N 41°02' W 090°56'4 3.6
2017-Jun-10 14:00N 40°59' W 090°58'2 4.2
2017-Jun-10 13:30N 40°57' W 090°57'2 4.2
2017-Jun-10 13:00N 40°55' W 090°59'2 4.7
2017-Jun-10 12:30N 40°53' W 091°01'0 0.8
2017-Jun-10 12:00N 40°53' W 091°01'0 0.2
2017-Jun-10 11:30N 40°53' W 091°02'0 0.0
2017-Jun-10 11:00N 40°53' W 091°02'1 2.3
2017-Jun-10 10:30N 40°52' W 091°03'0 0.3
2017-Jun-10 10:00N 40°52' W 091°03'1 2.2
2017-Jun-10 09:30N 40°51' W 091°03'2 4.4
2017-Jun-10 09:00N 40°49' W 091°05'2 4.9
2017-Jun-10 08:30N 40°47' W 091°06'3 5.3
2017-Jun-10 07:55N 40°44' W 091°07'2 4.7
2017-Jun-10 07:30N 40°42' W 091°07'  

Dump ship's entire track history